Terminal Aerodrome Forecast
Issued by NWS

Home | Current Version | Previous Version | Text Only | Print | Product List | Glossary On
Versions: 1 2 3 4 5 6 7 8 9 10 11 12 13 14 15 16 17 18 19 20
000
FTUS43 KGRR 221100
TAFAZO
TAF
KAZO 221140Z 2212/2312 14008KT 6SM BR BKN200
     FM221900 12010KT 4SM BR VCSH OVC025
     FM230100 09012KT 2SM -RA BR OVC015=

USA.gov is the U.S. government's official web portal to all federal, state and local government web resources and services.